Time;durP1;ratioP1;P1;durP2;ratioP2;P2;SDS_P1;SDS_P2;PMS_P1;PMS_P2;Temp;Humidity;BMP_temperature;BMP_pressure;BME280_temperature;BME280_humidity;BME280_pressure;Samples;Min_cycle;Max_cycle;Signal;HPM_P1;HPM_P2
2022/03/11 00:00:42;;;;;;;0.10;0.10;;;;;;;2.16;73.05;102635.91;10486767;28;20017;-93
2022/03/11 00:05:42;;;;;;;0.05;0.05;;;;;;;1.99;72.90;102626.03;10498195;28;20323;-94
2022/03/11 00:10:43;;;;;;;0.00;0.00;;;;;;;2.04;73.08;102637.25;10492741;28;20019;-93
2022/03/11 00:15:43;;;;;;;0.00;0.00;;;;;;;1.97;72.33;102627.88;10492161;28;20029;-93
2022/03/11 00:20:44;;;;;;;0.00;0.00;;;;;;;1.93;71.65;102610.50;10482497;28;20275;-94
2022/03/11 00:25:44;;;;;;;0.00;0.00;;;;;;;1.97;71.38;102628.72;10483961;28;20029;-93
2022/03/11 00:30:44;;;;;;;0.00;0.00;;;;;;;1.92;71.38;102624.56;10485129;28;20278;-93
2022/03/11 00:35:45;;;;;;;0.00;0.00;;;;;;;1.88;70.38;102633.47;10481792;28;20271;-93
2022/03/11 00:40:45;;;;;;;0.00;0.00;;;;;;;1.94;69.74;102638.50;10478292;28;20017;-93
2022/03/11 00:45:45;;;;;;;0.00;0.00;;;;;;;1.80;69.94;102618.88;10497110;28;20282;-94
2022/03/11 00:50:46;;;;;;;0.00;0.00;;;;;;;1.87;69.79;102640.50;10483406;28;20266;-93
2022/03/11 00:55:47;;;;;;;0.00;0.00;;;;;;;1.70;69.70;102624.53;10490798;28;20029;-93
2022/03/11 01:00:47;;;;;;;0.05;0.05;;;;;;;1.77;69.58;102637.34;10486770;28;20123;-92
2022/03/11 01:05:48;;;;;;;0.00;0.00;;;;;;;1.69;69.51;102631.56;10479374;28;20111;-93
2022/03/11 01:10:48;;;;;;;0.00;0.00;;;;;;;1.56;69.16;102614.53;10479138;28;20025;-92
2022/03/11 01:15:48;;;;;;;0.00;0.00;;;;;;;1.62;68.45;102622.19;10487513;28;20037;-93
2022/03/11 01:20:49;;;;;;;0.00;0.00;;;;;;;1.56;68.37;102619.78;10490104;28;20016;-93
2022/03/11 01:25:49;;;;;;;0.00;0.00;;;;;;;1.47;69.02;102612.25;10487865;28;20048;-94
2022/03/11 01:30:50;;;;;;;0.00;0.00;;;;;;;1.52;68.52;102615.56;10477391;28;20289;-92
2022/03/11 01:35:51;;;;;;;0.10;0.10;;;;;;;1.39;69.03;102594.13;10473517;28;20054;-93
2022/03/11 01:40:51;;;;;;;0.00;0.00;;;;;;;1.30;68.35;102594.47;10488828;28;20279;-94
2022/03/11 01:45:51;;;;;;;0.00;0.00;;;;;;;1.32;67.56;102582.16;10484391;28;20329;-93
2022/03/11 01:50:52;;;;;;;0.00;0.00;;;;;;;1.34;67.27;102585.59;10475503;28;20024;-92
2022/03/11 01:55:52;;;;;;;0.10;0.10;;;;;;;1.26;67.45;102571.88;10490981;28;20027;-93
2022/03/11 02:00:53;;;;;;;0.00;0.00;;;;;;;1.25;67.59;102586.78;10485124;28;20052;-93
2022/03/11 02:05:53;;;;;;;0.00;0.00;;;;;;;1.10;67.88;102561.06;10490085;28;20523;-92
2022/03/11 02:10:55;;;;;;;0.07;0.07;;;;;;;1.07;67.71;102561.19;10490925;28;20025;-93
2022/03/11 02:15:55;;;;;;;0.00;0.00;;;;;;;1.13;67.98;102564.47;10474117;28;20308;-93
2022/03/11 02:20:55;;;;;;;0.03;0.03;;;;;;;1.12;67.34;102568.00;10467606;28;20021;-93
2022/03/11 02:25:56;;;;;;;0.00;0.00;;;;;;;1.01;67.36;102570.13;10479572;28;20270;-94
2022/03/11 02:30:56;;;;;;;0.00;0.00;;;;;;;1.01;67.79;102561.41;10456496;28;20032;-92
2022/03/11 02:35:56;;;;;;;0.00;0.00;;;;;;;0.95;68.09;102566.88;10472637;28;20267;-92
2022/03/11 02:40:57;;;;;;;0.10;0.10;;;;;;;0.81;67.69;102557.72;10474079;28;20017;-92
2022/03/11 02:45:57;;;;;;;0.00;0.00;;;;;;;0.78;68.00;102573.56;10475600;28;20325;-92
2022/03/11 02:50:58;;;;;;;0.00;0.00;;;;;;;0.68;67.74;102564.31;10478364;28;20658;-94
2022/03/11 02:55:58;;;;;;;0.10;0.10;;;;;;;0.71;67.43;102568.59;10474737;28;20021;-94
2022/03/11 03:01:01;;;;;;;0.10;0.10;;;;;;;0.78;67.46;102581.44;10469624;28;20827;-92
2022/03/11 03:06:03;;;;;;;0.00;0.00;;;;;;;0.72;67.57;102584.28;10475824;28;20012;-92
2022/03/11 03:11:03;;;;;;;0.10;0.10;;;;;;;0.54;67.65;102556.91;10487984;28;20021;-93
2022/03/11 03:16:04;;;;;;;0.10;0.10;;;;;;;0.58;68.08;102570.78;10479453;28;20107;-93
2022/03/11 03:21:05;;;;;;;0.10;0.10;;;;;;;0.57;67.69;102561.19;10459424;28;20314;-93
2022/03/11 03:26:05;;;;;;;0.00;0.00;;;;;;;0.39;68.21;102547.81;10468438;28;20051;-92
2022/03/11 03:31:05;;;;;;;0.00;0.00;;;;;;;0.40;67.99;102551.28;10481122;28;20013;-91
2022/03/11 03:36:06;;;;;;;0.10;0.10;;;;;;;0.39;67.59;102552.19;10478111;28;20013;-92
2022/03/11 03:41:06;;;;;;;0.00;0.00;;;;;;;0.26;67.80;102546.47;10472374;28;20036;-92
2022/03/11 03:46:07;;;;;;;0.00;0.00;;;;;;;0.29;67.92;102561.25;10476232;28;20116;-92
2022/03/11 03:51:07;;;;;;;0.00;0.00;;;;;;;0.12;68.54;102554.81;10478361;28;20074;-91
2022/03/11 03:56:07;;;;;;;0.00;0.00;;;;;;;0.01;68.39;102562.16;10476220;28;20028;-92
2022/03/11 04:01:08;;;;;;;0.00;0.00;;;;;;;-0.08;68.95;102551.97;10476597;28;20049;-92
2022/03/11 04:06:08;;;;;;;0.00;0.00;;;;;;;-0.17;69.22;102550.50;10470112;28;20921;-92
2022/03/11 04:11:08;;;;;;;0.10;0.10;;;;;;;-0.18;69.22;102546.16;10479114;28;20072;-93
2022/03/11 04:16:09;;;;;;;0.10;0.10;;;;;;;-0.22;70.35;102557.63;10465266;28;20031;-92
2022/03/11 04:21:09;;;;;;;0.00;0.00;;;;;;;-0.34;70.51;102526.59;10471542;28;20539;-92
2022/03/11 04:26:10;;;;;;;0.10;0.10;;;;;;;-0.26;70.48;102540.31;10476950;28;20024;-92
2022/03/11 04:31:14;;;;;;;0.00;0.00;;;;;;;-0.34;70.32;102530.06;10455722;28;20461;-92
2022/03/11 04:36:15;;;;;;;0.00;0.00;;;;;;;-0.37;70.14;102510.97;10461674;28;20067;-93
2022/03/11 04:41:15;;;;;;;0.00;0.00;;;;;;;-0.37;70.55;102530.16;10457723;28;20078;-93
2022/03/11 04:46:15;;;;;;;0.10;0.10;;;;;;;-0.55;71.50;102510.63;10464652;28;20059;-92
2022/03/11 04:51:16;;;;;;;0.10;0.10;;;;;;;-0.68;71.12;102504.03;10461877;28;20279;-92
2022/03/11 04:56:17;;;;;;;0.10;0.10;;;;;;;-0.71;71.34;102514.59;10476400;28;20028;-92
2022/03/11 05:01:17;;;;;;;0.10;0.10;;;;;;;-0.67;71.34;102521.44;10462370;28;20020;-92
2022/03/11 05:06:17;;;;;;;0.10;0.10;;;;;;;-0.77;71.16;102504.31;10470058;28;20017;-92
2022/03/11 05:11:18;;;;;;;0.00;0.00;;;;;;;-0.82;71.93;102512.28;10462161;28;20278;-93
2022/03/11 05:16:18;;;;;;;0.10;0.10;;;;;;;-0.76;71.23;102500.78;10470378;28;20104;-92
2022/03/11 05:21:20;;;;;;;0.00;0.00;;;;;;;-0.84;71.22;102503.66;10465142;28;20036;-92
2022/03/11 05:26:27;;;;;;;0.00;0.00;;;;;;;-0.79;71.94;102525.28;10472814;28;20058;-91
2022/03/11 05:31:28;;;;;;;0.10;0.10;;;;;;;-0.91;71.89;102513.41;10467061;28;20036;-94
2022/03/11 05:36:28;;;;;;;0.10;0.10;;;;;;;-0.93;72.30;102535.31;10467081;28;20021;-92
2022/03/11 05:41:29;;;;;;;0.10;0.10;;;;;;;-0.85;71.15;102527.22;10514431;22;20045;-70
2022/03/11 05:46:29;;;;;;;0.00;0.00;;;;;;;-0.86;71.36;102520.28;10447411;28;20402;-72
2022/03/11 05:51:29;;;;;;;0.10;0.10;;;;;;;-0.88;71.18;102517.69;10450599;28;20510;-70
2022/03/11 05:56:30;;;;;;;0.10;0.10;;;;;;;-0.90;72.35;102519.53;10449707;28;20346;-71
2022/03/11 06:01:32;;;;;;;0.00;0.00;;;;;;;-0.35;69.74;102530.09;10450732;28;20108;-71
2022/03/11 06:06:32;;;;;;;0.10;0.10;;;;;;;0.22;67.43;102531.78;10432136;28;20056;-71
2022/03/11 06:11:33;;;;;;;0.00;0.00;;;;;;;0.83;65.04;102534.06;10449752;28;20064;-71
2022/03/11 06:16:34;;;;;;;0.10;0.10;;;;;;;1.28;63.64;102528.91;10448318;28;20031;-71
2022/03/11 06:21:35;;;;;;;0.00;0.00;;;;;;;1.76;60.70;102530.56;10449367;28;20021;-70
2022/03/11 06:26:35;;;;;;;0.00;0.00;;;;;;;1.90;59.64;102531.78;10448768;28;20029;-71
2022/03/11 06:31:37;;;;;;;0.00;0.00;;;;;;;2.08;58.58;102527.56;10449464;28;20032;-71
2022/03/11 06:36:37;;;;;;;0.00;0.00;;;;;;;2.62;58.13;102531.44;10447888;28;20033;-71
2022/03/11 06:41:37;;;;;;;0.00;0.00;;;;;;;2.94;56.39;102538.78;10446675;28;20033;-71
2022/03/11 06:46:38;;;;;;;0.00;0.00;;;;;;;3.20;56.08;102528.00;10448299;28;20638;-71
2022/03/11 06:51:39;;;;;;;0.00;0.00;;;;;;;3.60;54.66;102524.38;10448561;28;20278;-71
2022/03/11 06:56:39;;;;;;;0.00;0.00;;;;;;;3.46;54.31;102532.94;10438265;28;20017;-71
2022/03/11 07:01:39;;;;;;;0.00;0.00;;;;;;;3.59;53.36;102525.31;10448169;28;20035;-71
2022/03/11 07:06:40;;;;;;;0.00;0.00;;;;;;;3.61;52.11;102524.31;10447490;28;20646;-71
2022/03/11 07:11:40;;;;;;;0.00;0.00;;;;;;;3.75;52.75;102514.88;10446030;28;20025;-71
2022/03/11 07:16:40;;;;;;;0.00;0.00;;;;;;;3.85;52.15;102522.28;10443994;28;20032;-71
2022/03/11 07:21:40;;;;;;;0.00;0.00;;;;;;;4.39;50.07;102524.88;10451130;28;20036;-71
2022/03/11 07:26:41;;;;;;;0.00;0.00;;;;;;;4.47;49.79;102516.59;10446946;28;20021;-71
2022/03/11 07:31:42;;;;;;;0.00;0.00;;;;;;;4.47;49.17;102516.59;10450995;28;20310;-71
2022/03/11 07:36:43;;;;;;;0.00;0.00;;;;;;;4.32;48.84;102527.00;10454648;28;20463;-70
2022/03/11 07:41:44;;;;;;;0.00;0.00;;;;;;;4.31;48.45;102503.34;10454820;28;20021;-71
2022/03/11 07:46:44;;;;;;;0.08;0.08;;;;;;;4.50;48.17;102514.66;10454284;28;20425;-70
2022/03/11 07:51:45;;;;;;;0.00;0.00;;;;;;;4.86;48.06;102507.53;10453941;28;20020;-71
2022/03/11 07:56:45;;;;;;;0.00;0.00;;;;;;;4.83;47.74;102507.69;10453627;28;20023;-71
2022/03/11 08:01:46;;;;;;;0.00;0.00;;;;;;;4.85;46.73;102511.97;10453926;28;20021;-72
2022/03/11 08:06:46;;;;;;;0.00;0.00;;;;;;;5.02;46.33;102497.03;10452878;28;20104;-71
2022/03/11 08:11:46;;;;;;;0.10;0.10;;;;;;;4.70;46.43;102499.56;10453479;28;20099;-72
2022/03/11 08:16:47;;;;;;;0.00;0.00;;;;;;;4.97;47.11;102503.41;10454208;28;20031;-71
2022/03/11 08:21:47;;;;;;;0.70;0.32;;;;;;;4.57;46.12;102474.72;10455716;28;20013;-72
2022/03/11 08:26:48;;;;;;;0.10;0.10;;;;;;;4.47;46.73;102477.00;10451393;28;20514;-71
2022/03/11 08:31:48;;;;;;;0.00;0.00;;;;;;;4.69;47.34;102474.13;10453210;28;20529;-71
2022/03/11 08:36:48;;;;;;;0.00;0.00;;;;;;;4.62;46.49;102475.34;10450381;28;20380;-71
2022/03/11 08:41:49;;;;;;;0.00;0.00;;;;;;;4.82;45.40;102469.03;10455540;28;20494;-71
2022/03/11 08:46:49;;;;;;;0.00;0.00;;;;;;;4.82;46.04;102463.75;10451221;28;20943;-71
2022/03/11 08:51:49;;;;;;;0.00;0.00;;;;;;;4.89;46.03;102489.75;10454239;28;20103;-72
2022/03/11 08:56:52;;;;;;;0.00;0.00;;;;;;;5.04;44.92;102451.09;10452551;28;20111;-71
2022/03/11 09:01:52;;;;;;;0.00;0.00;;;;;;;5.02;44.95;102449.47;10451148;28;20020;-71
2022/03/11 09:06:56;;;;;;;0.00;0.00;;;;;;;5.13;42.95;102439.19;10439945;28;20033;-71
2022/03/11 09:11:56;;;;;;;0.00;0.00;;;;;;;4.83;41.94;102429.38;10444755;28;20021;-71
2022/03/11 09:16:58;;;;;;;0.00;0.00;;;;;;;4.91;42.68;102421.84;10450686;28;20918;-71
2022/03/11 09:21:59;;;;;;;0.00;0.00;;;;;;;4.67;43.18;102418.75;10450338;28;20286;-71
2022/03/11 09:26:59;;;;;;;0.00;0.00;;;;;;;4.74;42.14;102408.72;10449831;28;20035;-71
2022/03/11 09:31:59;;;;;;;0.00;0.00;;;;;;;4.81;43.33;102419.81;10450081;28;20012;-71
2022/03/11 09:37:00;;;;;;;0.00;0.00;;;;;;;4.94;43.56;102407.63;10451719;28;20267;-71
2022/03/11 09:42:04;;;;;;;0.00;0.00;;;;;;;4.78;41.58;102409.44;10447978;28;20017;-71
2022/03/11 09:47:05;;;;;;;0.00;0.00;;;;;;;4.69;41.94;102408.97;10446097;28;20271;-71
2022/03/11 09:52:07;;;;;;;0.00;0.00;;;;;;;4.61;41.62;102397.97;10427587;28;20422;-71
2022/03/11 09:57:08;;;;;;;0.00;0.00;;;;;;;4.80;41.58;102379.38;10447926;28;20016;-71
2022/03/11 10:02:15;;;;;;;0.00;0.00;;;;;;;5.26;41.59;102382.06;10431855;28;20013;-71
2022/03/11 10:07:25;;;;;;;0.00;0.00;;;;;;;4.97;40.00;102386.34;10451963;28;20022;-71
2022/03/11 10:12:28;;;;;;;0.00;0.00;;;;;;;5.14;40.64;102378.34;10455380;28;20036;-71
2022/03/11 10:17:43;;;;;;;0.00;0.00;;;;;;;5.16;39.33;102372.97;10436500;28;20034;-72
2022/03/11 10:22:47;;;;;;;0.00;0.00;;;;;;;5.22;40.86;102362.91;10447688;28;20074;-72
2022/03/11 10:28:05;;;;;;;0.00;0.00;;;;;;;5.27;39.39;102367.94;10448953;28;20512;-72
2022/03/11 10:33:12;;;;;;;0.00;0.00;;;;;;;5.31;39.27;102369.47;10449040;28;20499;-72
2022/03/11 10:38:18;;;;;;;0.00;0.00;;;;;;;5.58;42.25;102360.88;10448463;28;20495;-72
2022/03/11 10:43:28;;;;;;;0.00;0.00;;;;;;;5.65;38.67;102349.03;10447883;28;20037;-72
2022/03/11 10:48:47;;;;;;;0.00;0.00;;;;;;;5.64;39.88;102339.38;10449464;28;20026;-72
2022/03/11 10:53:51;;;;;;;0.00;0.00;;;;;;;5.75;39.11;102342.25;10454376;28;20021;-72
2022/03/11 10:58:51;;;;;;;0.00;0.00;;;;;;;5.79;39.39;102333.19;10448267;28;20495;-72
2022/03/11 11:03:52;;;;;;;0.00;0.00;;;;;;;5.97;40.01;102333.06;10447310;28;20021;-71
2022/03/11 11:08:52;;;;;;;0.00;0.00;;;;;;;6.04;38.12;102322.00;10455523;28;20100;-72
2022/03/11 11:13:53;;;;;;;0.00;0.00;;;;;;;6.09;36.22;102321.75;10455676;28;20067;-72
2022/03/11 11:18:57;;;;;;;0.00;0.00;;;;;;;6.26;36.70;102320.72;10436739;28;20028;-72
2022/03/11 11:23:57;;;;;;;0.00;0.00;;;;;;;6.40;37.43;102320.72;10439569;28;20115;-72
2022/03/11 11:29:00;;;;;;;0.00;0.00;;;;;;;6.35;36.03;102310.41;10444984;28;20273;-72
2022/03/11 11:34:00;;;;;;;0.00;0.00;;;;;;;6.50;35.44;102297.16;10443210;28;20025;-72
2022/03/11 11:39:06;;;;;;;0.00;0.00;;;;;;;6.51;34.76;102302.34;10552507;23;20420;-72
2022/03/11 11:44:08;;;;;;;0.00;0.00;;;;;;;6.65;36.97;102285.59;10502573;28;20024;-73
2022/03/11 11:49:13;;;;;;;0.00;0.00;;;;;;;6.72;35.01;102278.09;10497950;28;20166;-72
2022/03/11 11:54:13;;;;;;;0.00;0.00;;;;;;;6.71;34.59;102266.66;10495160;28;20041;-71
2022/03/11 11:59:26;;;;;;;0.00;0.00;;;;;;;6.82;34.77;102265.97;10495071;28;20412;-71
2022/03/11 12:04:38;;;;;;;0.00;0.00;;;;;;;7.01;34.19;102265.59;10494919;28;20093;-71
2022/03/11 12:09:50;;;;;;;0.00;0.00;;;;;;;7.00;34.74;102256.81;10495060;28;20024;-71
2022/03/11 12:14:53;;;;;;;0.00;0.00;;;;;;;7.11;33.80;102239.38;10494252;28;20025;-72
2022/03/11 12:19:54;;;;;;;0.00;0.00;;;;;;;7.21;34.52;102235.13;10493518;28;20463;-71
2022/03/11 12:25:05;;;;;;;0.00;0.00;;;;;;;7.23;31.99;102227.94;10475737;28;20028;-71
2022/03/11 12:30:09;;;;;;;0.00;0.00;;;;;;;7.24;33.03;102230.50;10494215;28;20768;-71
2022/03/11 12:35:09;;;;;;;0.10;0.10;;;;;;;7.36;32.50;102222.66;10493924;28;20051;-72
2022/03/11 12:40:10;;;;;;;0.00;0.00;;;;;;;7.52;34.80;102210.06;10493558;28;20052;-71
2022/03/11 12:45:12;;;;;;;0.00;0.00;;;;;;;7.57;32.09;102207.94;10493614;28;20063;-71
2022/03/11 12:50:13;;;;;;;0.00;0.00;;;;;;;7.63;32.57;102202.22;10493414;28;20031;-71
2022/03/11 12:55:20;;;;;;;0.05;0.05;;;;;;;7.74;33.38;102190.88;10493605;28;20027;-71
2022/03/11 13:00:22;;;;;;;0.00;0.00;;;;;;;7.74;33.00;102182.03;10475532;28;20024;-71
2022/03/11 13:05:28;;;;;;;0.00;0.00;;;;;;;7.81;32.36;102178.03;10474829;28;20447;-71
2022/03/11 13:10:29;;;;;;;0.00;0.00;;;;;;;7.75;33.01;102184.59;10493463;28;20153;-71
2022/03/11 13:15:34;;;;;;;0.05;0.05;;;;;;;7.82;33.33;102167.28;10492837;28;20207;-70
2022/03/11 13:20:34;;;;;;;0.00;0.00;;;;;;;7.88;32.06;102160.69;10492481;28;20548;-70
2022/03/11 13:25:36;;;;;;;0.00;0.00;;;;;;;7.97;33.10;102146.81;10492162;28;20154;-71
2022/03/11 13:30:39;;;;;;;0.10;0.10;;;;;;;8.09;33.26;102153.88;10489438;28;20099;-71
2022/03/11 13:35:40;;;;;;;0.00;0.00;;;;;;;8.07;32.44;102153.13;10490005;28;20489;-70
2022/03/11 13:40:50;;;;;;;0.10;0.10;;;;;;;8.10;32.17;102150.25;10491901;28;20043;-71
2022/03/11 13:45:52;;;;;;;0.00;0.00;;;;;;;8.17;34.22;102142.69;10474096;28;20034;-71
2022/03/11 13:51:01;;;;;;;0.10;0.10;;;;;;;8.15;32.87;102140.16;10491710;28;20104;-71
2022/03/11 13:56:14;;;;;;;0.00;0.00;;;;;;;8.13;32.80;102134.09;10491602;28;20150;-71
2022/03/11 14:01:17;;;;;;;0.00;0.00;;;;;;;8.22;33.48;102126.44;10491490;28;20039;-71
2022/03/11 14:06:31;;;;;;;0.00;0.00;;;;;;;8.33;32.75;102122.03;10491740;28;20107;-70
2022/03/11 14:11:31;;;;;;;0.00;0.00;;;;;;;8.35;33.78;102128.09;10475051;28;20043;-71
2022/03/11 14:16:31;;;;;;;0.00;0.00;;;;;;;8.26;33.43;102112.84;10493484;28;20078;-70
2022/03/11 14:21:32;;;;;;;0.10;0.10;;;;;;;8.32;33.15;102115.03;10488325;28;20324;-71
2022/03/11 14:26:32;;;;;;;0.10;0.10;;;;;;;8.31;33.18;102105.38;10486877;28;20024;-71
2022/03/11 14:31:33;;;;;;;0.00;0.00;;;;;;;8.32;32.25;102101.78;10483741;28;20320;-70
2022/03/11 14:36:33;;;;;;;0.00;0.00;;;;;;;8.31;32.58;102105.38;10488918;28;20488;-70
2022/03/11 14:41:35;;;;;;;0.00;0.00;;;;;;;8.33;33.40;102124.69;10496687;28;20043;-70
2022/03/11 14:46:37;;;;;;;0.00;0.00;;;;;;;8.31;34.13;102115.97;10497267;28;20336;-73
2022/03/11 14:51:37;;;;;;;0.00;0.00;;;;;;;8.25;32.43;102107.63;10494991;28;20064;-72
2022/03/11 14:56:38;;;;;;;0.10;0.10;;;;;;;8.19;32.76;102094.81;10498932;28;20341;-72
2022/03/11 15:01:38;;;;;;;0.10;0.10;;;;;;;8.19;33.93;102085.03;10496622;28;20278;-72
2022/03/11 15:06:38;;;;;;;0.00;0.00;;;;;;;8.20;33.56;102085.88;10493159;28;20036;-72
2022/03/11 15:11:39;;;;;;;0.00;0.00;;;;;;;8.15;33.24;102092.38;10492692;28;20495;-72
2022/03/11 15:16:39;;;;;;;0.00;0.00;;;;;;;8.13;32.46;102089.00;10495606;28;20025;-72
2022/03/11 15:21:40;;;;;;;0.00;0.00;;;;;;;8.12;34.55;102076.69;10497533;28;20364;-73
2022/03/11 15:26:40;;;;;;;0.00;0.00;;;;;;;8.11;33.17;102071.47;10497069;28;20404;-72
2022/03/11 15:31:48;;;;;;;0.00;0.00;;;;;;;8.10;32.27;102065.31;10496991;28;20024;-73
2022/03/11 15:36:50;;;;;;;0.00;0.00;;;;;;;8.05;33.53;102061.31;10478802;28;20344;-72
2022/03/11 15:41:50;;;;;;;0.00;0.00;;;;;;;7.99;34.37;102059.97;10496775;28;20032;-73
2022/03/11 15:46:51;;;;;;;0.00;0.00;;;;;;;7.91;34.41;102067.63;10496921;28;20024;-73
2022/03/11 15:51:51;;;;;;;0.00;0.00;;;;;;;7.85;33.58;102068.06;10495345;28;20552;-72
2022/03/11 15:56:53;;;;;;;0.00;0.00;;;;;;;7.79;34.31;102060.56;10496681;28;20020;-72
2022/03/11 16:01:54;;;;;;;0.03;0.03;;;;;;;7.74;33.38;102054.72;10495461;28;20491;-71
2022/03/11 16:06:54;;;;;;;0.05;0.05;;;;;;;7.75;33.91;102059.09;10494450;28;20055;-72
2022/03/11 16:11:54;;;;;;;0.00;0.00;;;;;;;7.63;34.53;102061.66;10495044;28;20070;-71
2022/03/11 16:16:55;;;;;;;0.00;0.00;;;;;;;7.57;33.84;102062.09;10493000;28;20039;-71
2022/03/11 16:21:55;;;;;;;0.00;0.00;;;;;;;7.59;32.90;102056.69;10474919;28;20031;-71
2022/03/11 16:26:55;;;;;;;0.00;0.00;;;;;;;7.51;33.54;102064.34;10494827;28;20079;-71
2022/03/11 16:31:56;;;;;;;0.00;0.00;;;;;;;7.40;33.25;102062.47;10494454;28;20690;-73
2022/03/11 16:36:56;;;;;;;0.00;0.00;;;;;;;7.24;35.03;102068.84;10494372;28;20552;-73
2022/03/11 16:41:56;;;;;;;0.00;0.00;;;;;;;7.14;34.03;102046.56;10494131;28;20038;-73
2022/03/11 16:46:57;;;;;;;0.00;0.00;;;;;;;7.15;33.23;102055.38;10494514;28;20054;-73
2022/03/11 16:51:58;;;;;;;0.00;0.00;;;;;;;7.00;34.80;102031.63;10493788;28;20020;-72
2022/03/11 16:56:59;;;;;;;0.00;0.00;;;;;;;6.86;34.47;102042.31;10493518;28;20051;-72
2022/03/11 17:01:59;;;;;;;0.00;0.00;;;;;;;6.84;34.55;102048.72;10493118;28;20036;-72
2022/03/11 17:07:03;;;;;;;0.00;0.00;;;;;;;6.79;34.85;102044.56;10493127;28;20020;-73
2022/03/11 17:12:04;;;;;;;0.00;0.00;;;;;;;6.71;34.57;102065.41;10492669;28;20025;-73
2022/03/11 17:17:04;;;;;;;0.00;0.00;;;;;;;6.59;35.11;102053.00;10492795;28;20051;-73
2022/03/11 17:22:05;;;;;;;0.00;0.00;;;;;;;6.45;36.12;102071.59;10473887;28;20123;-72
2022/03/11 17:27:06;;;;;;;0.00;0.00;;;;;;;6.40;36.55;102056.06;10491765;28;20214;-73
2022/03/11 17:32:06;;;;;;;0.00;0.00;;;;;;;6.25;37.01;102062.34;10474105;28;20017;-73
2022/03/11 17:37:07;;;;;;;0.00;0.00;;;;;;;6.11;37.56;102071.19;10473469;28;20028;-73
2022/03/11 17:42:08;;;;;;;0.00;0.00;;;;;;;6.07;37.48;102072.31;10492049;22;20123;-71
2022/03/11 17:47:09;;;;;;;0.10;0.10;;;;;;;5.93;38.33;102070.56;10463315;28;20056;-70
2022/03/11 17:52:10;;;;;;;0.00;0.00;;;;;;;5.79;38.64;102079.38;10452883;28;20428;-70
2022/03/11 17:57:10;;;;;;;0.00;0.00;;;;;;;5.70;39.13;102089.66;10451682;28;20146;-70
2022/03/11 18:02:10;;;;;;;0.00;0.00;;;;;;;5.67;39.04;102085.41;10434804;28;20012;-70
2022/03/11 18:07:11;;;;;;;0.00;0.00;;;;;;;5.70;39.00;102098.44;10433901;28;20270;-69
2022/03/11 18:12:12;;;;;;;0.00;0.00;;;;;;;5.80;38.21;102094.28;10451928;28;20475;-70
2022/03/11 18:17:14;;;;;;;0.00;0.00;;;;;;;5.74;38.21;102101.75;10451722;28;20021;-69
2022/03/11 18:22:14;;;;;;;0.00;0.00;;;;;;;5.59;39.19;102090.34;10451478;28;20233;-70
2022/03/11 18:27:15;;;;;;;0.00;0.00;;;;;;;5.39;40.34;102097.72;10432999;28;20056;-70
2022/03/11 18:32:15;;;;;;;0.00;0.00;;;;;;;5.33;39.96;102094.59;10451593;28;20017;-70
2022/03/11 18:37:16;;;;;;;0.00;0.00;;;;;;;5.29;40.38;102103.63;10450945;28;20025;-70
2022/03/11 18:42:18;;;;;;;0.00;0.00;;;;;;;5.26;40.20;102102.03;10451254;28;20490;-70
2022/03/11 18:47:19;;;;;;;0.00;0.00;;;;;;;5.14;40.21;102082.50;10451200;28;20274;-69
2022/03/11 18:52:19;;;;;;;0.00;0.00;;;;;;;5.03;40.83;102087.56;10451425;28;20025;-70
2022/03/11 18:57:20;;;;;;;0.00;0.00;;;;;;;4.97;40.49;102094.09;10450434;28;20025;-70
2022/03/11 19:02:20;;;;;;;0.00;0.00;;;;;;;5.02;40.24;102096.44;10451875;28;20029;-69
2022/03/11 19:07:20;;;;;;;0.00;0.00;;;;;;;4.96;40.63;102102.94;10450681;28;20029;-69
2022/03/11 19:12:21;;;;;;;0.00;0.00;;;;;;;4.92;40.16;102105.88;10450694;28;20025;-70
2022/03/11 19:17:22;;;;;;;0.00;0.00;;;;;;;4.90;40.60;102108.59;10450658;28;20324;-70
2022/03/11 19:22:23;;;;;;;0.00;0.00;;;;;;;4.84;39.99;102106.31;10451130;28;20028;-70
2022/03/11 19:27:23;;;;;;;0.00;0.00;;;;;;;4.74;41.06;102108.66;10451669;28;20384;-70
2022/03/11 19:32:24;;;;;;;0.00;0.00;;;;;;;4.65;41.23;102109.16;10458420;28;20032;-70
2022/03/11 19:37:30;;;;;;;0.00;0.00;;;;;;;4.55;41.43;102108.03;10457504;28;20267;-69
2022/03/11 19:42:31;;;;;;;0.00;0.00;;;;;;;4.48;41.13;102114.56;10457704;28;20029;-70
2022/03/11 19:47:31;;;;;;;0.00;0.00;;;;;;;4.47;41.20;102119.00;10457201;28;20437;-69
2022/03/11 19:52:32;;;;;;;0.00;0.00;;;;;;;4.43;41.11;102106.09;10439647;28;20071;-69
2022/03/11 19:57:32;;;;;;;0.00;0.00;;;;;;;4.41;41.12;102103.53;10456484;28;20028;-69
2022/03/11 20:02:33;;;;;;;0.00;0.00;;;;;;;4.38;40.90;102108.13;10456646;28;20104;-69
2022/03/11 20:07:34;;;;;;;0.00;0.00;;;;;;;4.36;40.57;102110.00;10456555;28;20078;-70
2022/03/11 20:12:40;;;;;;;0.00;0.00;;;;;;;4.35;40.65;102114.44;10456411;28;20025;-69
2022/03/11 20:17:44;;;;;;;0.00;0.00;;;;;;;4.39;40.55;102104.56;10456201;28;20029;-70
2022/03/11 20:22:44;;;;;;;0.00;0.00;;;;;;;4.43;40.87;102112.22;10438350;28;20074;-70
2022/03/11 20:27:45;;;;;;;0.00;0.00;;;;;;;4.38;40.90;102092.31;10455097;28;20090;-70
2022/03/11 20:32:46;;;;;;;0.00;0.00;;;;;;;4.43;40.08;102092.91;10455697;28;20017;-69
2022/03/11 20:37:46;;;;;;;0.00;0.00;;;;;;;4.49;39.50;102101.31;10454539;28;20036;-69
2022/03/11 20:42:48;;;;;;;0.00;0.00;;;;;;;4.51;39.89;102096.81;10455204;28;20021;-69
2022/03/11 20:47:48;;;;;;;0.00;0.00;;;;;;;4.48;39.73;102094.34;10454986;28;20472;-70
2022/03/11 20:52:49;;;;;;;0.00;0.00;;;;;;;4.41;39.67;102102.69;10454759;28;20013;-69
2022/03/11 20:57:49;;;;;;;0.00;0.00;;;;;;;4.39;39.45;102089.56;10454131;28;20111;-69
2022/03/11 21:02:49;;;;;;;0.00;0.00;;;;;;;4.47;39.14;102094.41;10454410;28;20032;-70
2022/03/11 21:07:49;;;;;;;0.00;0.00;;;;;;;4.42;38.40;102094.69;10448810;28;20025;-69
2022/03/11 21:12:52;;;;;;;0.00;0.00;;;;;;;4.32;39.08;102101.44;10440105;28;20048;-70
2022/03/11 21:17:52;;;;;;;0.00;0.00;;;;;;;4.31;38.73;102097.94;10438259;28;20380;-69
2022/03/11 21:22:54;;;;;;;0.00;0.00;;;;;;;4.31;39.42;102116.41;10434850;28;20020;-68
2022/03/11 21:27:55;;;;;;;0.00;0.00;;;;;;;4.27;39.36;102114.88;10425751;28;20306;-68
2022/03/11 21:32:55;;;;;;;0.00;0.00;;;;;;;4.17;39.86;102118.97;10428845;28;20507;-70
2022/03/11 21:37:56;;;;;;;0.00;0.00;;;;;;;4.05;39.79;102106.47;10435677;28;20472;-69
2022/03/11 21:42:57;;;;;;;0.00;0.00;;;;;;;3.93;40.97;102112.44;10433550;28;20475;-69
2022/03/11 21:47:57;;;;;;;0.00;0.00;;;;;;;3.87;40.96;102118.91;10413651;28;20029;-70
2022/03/11 21:52:57;;;;;;;0.00;0.00;;;;;;;3.81;41.00;102109.53;10416945;28;20028;-70
2022/03/11 21:57:58;;;;;;;0.00;0.00;;;;;;;3.73;40.71;102111.75;10439441;28;20025;-69
2022/03/11 22:02:58;;;;;;;0.00;0.00;;;;;;;3.73;40.35;102109.09;10442176;28;20770;-70
2022/03/11 22:08:00;;;;;;;0.00;0.00;;;;;;;3.69;40.32;102098.78;10413043;28;20032;-69
2022/03/11 22:13:01;;;;;;;0.00;0.00;;;;;;;3.67;40.89;102098.06;10416763;28;20016;-68
2022/03/11 22:18:02;;;;;;;0.00;0.00;;;;;;;3.67;39.91;102105.97;10435189;28;20024;-69
2022/03/11 22:23:02;;;;;;;0.00;0.00;;;;;;;3.68;38.86;102107.66;10430770;28;20056;-68
2022/03/11 22:28:03;;;;;;;0.00;0.00;;;;;;;3.62;39.97;102114.94;10429800;28;20486;-70
2022/03/11 22:33:04;;;;;;;0.10;0.10;;;;;;;3.60;40.21;102115.94;10433857;28;20013;-69
2022/03/11 22:38:11;;;;;;;0.00;0.00;;;;;;;3.49;40.04;102113.03;10431831;28;20017;-69
2022/03/11 22:43:11;;;;;;;0.00;0.00;;;;;;;3.41;39.90;102121.38;10434055;28;20341;-69
2022/03/11 22:48:14;;;;;;;0.00;0.00;;;;;;;3.32;40.58;102113.97;10405057;28;20022;-69
2022/03/11 22:53:19;;;;;;;0.00;0.00;;;;;;;3.27;41.00;102113.34;10411371;28;20021;-69
2022/03/11 22:58:21;;;;;;;0.00;0.00;;;;;;;3.22;40.79;102110.94;10448047;28;20025;-69
2022/03/11 23:03:26;;;;;;;0.00;0.00;;;;;;;3.17;40.11;102108.56;10438901;28;20542;-69
2022/03/11 23:13:46;;;;;;;0.00;0.00;;;;;;;3.15;41.34;102113.03;10431078;28;20496;-69
2022/03/11 23:18:49;;;;;;;0.00;0.00;;;;;;;3.01;41.64;102112.91;10432426;28;20021;-69
2022/03/11 23:23:50;;;;;;;0.00;0.00;;;;;;;2.98;41.24;102114.84;10412923;28;20112;-69